Time;durP1;ratioP1;P1;durP2;ratioP2;P2;SDS_P1;SDS_P2;PMS_P1;PMS_P2;Temp;Humidity;BMP_temperature;BMP_pressure;BME280_temperature;BME280_humidity;BME280_pressure;Samples;Min_cycle;Max_cycle;Signal;HPM_P1;HPM_P2
2022/03/02 00:00:33;;;;;;;9.63;8.00;;;;;;;-143.84;91.83;45174.75;5130479;27;20438;-75
2022/03/02 00:03:00;;;;;;;11.03;9.50;;;;;;;-143.84;92.20;45195.69;5132796;27;20503;-75
2022/03/02 00:05:27;;;;;;;8.87;7.50;;;;;;;-143.84;91.61;45186.16;5132678;28;20479;-74
2022/03/02 00:07:55;;;;;;;8.27;7.30;;;;;;;-143.84;91.33;45224.25;5132715;28;20469;-75
2022/03/02 00:10:22;;;;;;;10.87;8.93;;;;;;;-143.84;91.42;45203.31;5132941;28;20439;-75
2022/03/02 00:12:50;;;;;;;9.10;8.10;;;;;;;-143.84;91.62;45205.22;5133049;28;20503;-74
2022/03/02 00:15:17;;;;;;;9.73;8.23;;;;;;;-143.84;91.66;45186.16;5132715;28;20805;-75
2022/03/02 00:17:46;;;;;;;9.00;7.80;;;;;;;-143.84;91.95;45209.03;5132820;28;20430;-74
2022/03/02 00:20:14;;;;;;;9.20;8.13;;;;;;;-143.84;91.91;45205.22;5132681;28;20509;-75
2022/03/02 00:22:41;;;;;;;8.47;7.40;;;;;;;-143.84;91.54;45212.84;5132690;28;20426;-75
2022/03/02 00:25:09;;;;;;;9.87;8.50;;;;;;;-143.84;91.70;45203.31;5132663;28;20522;-74
2022/03/02 00:27:37;;;;;;;9.03;7.20;;;;;;;-143.84;91.70;45186.16;5136152;27;20577;-75
2022/03/02 00:30:05;;;;;;;8.50;7.53;;;;;;;-143.84;91.82;45201.41;5137246;27;20902;-75
2022/03/02 00:32:32;;;;;;;8.80;7.07;;;;;;;-143.84;92.02;45193.78;5137161;27;20501;-75
2022/03/02 00:35:00;;;;;;;12.53;9.37;;;;;;;-143.84;91.96;45228.06;5137179;27;20426;-75
2022/03/02 00:37:27;;;;;;;11.07;7.60;;;;;;;-143.84;91.55;45195.69;5135976;27;20502;-75
2022/03/02 00:39:55;;;;;;;7.93;7.13;;;;;;;-143.84;91.56;45201.41;5136792;27;20430;-75
2022/03/02 00:42:22;;;;;;;7.60;6.90;;;;;;;-143.84;91.83;45201.41;5136410;27;21207;-75
2022/03/02 00:44:49;;;;;;;8.33;7.40;;;;;;;-143.84;91.87;45191.88;5136386;27;20450;-74
2022/03/02 00:47:17;;;;;;;9.83;7.47;;;;;;;-143.84;91.48;45214.72;5136460;27;20526;-75
2022/03/02 00:49:44;;;;;;;16.73;7.33;;;;;;;-143.84;91.82;45193.78;5136444;27;20494;-75
2022/03/02 00:52:14;;;;;;;8.73;7.40;;;;;;;-143.84;91.80;45210.94;5136699;27;20491;-74
2022/03/02 00:54:41;;;;;;;10.40;7.90;;;;;;;-143.84;91.88;45191.88;5135713;27;20893;-74
2022/03/02 00:57:08;;;;;;;8.43;7.17;;;;;;;-143.84;91.06;45201.41;5136491;27;20446;-74
2022/03/02 00:59:35;;;;;;;7.47;6.67;;;;;;;-143.84;91.43;45191.88;5136074;27;20426;-75
2022/03/02 01:02:03;;;;;;;7.40;6.27;;;;;;;-143.84;91.47;45178.56;5135718;27;20474;-75
2022/03/02 01:04:30;;;;;;;8.10;6.50;;;;;;;-143.84;91.54;45180.47;5134766;27;20502;-76
2022/03/02 01:06:57;;;;;;;12.87;7.70;;;;;;;-143.84;91.26;45191.88;5135366;27;21307;-74
2022/03/02 01:09:26;;;;;;;7.90;7.03;;;;;;;-143.84;91.32;45212.84;5135636;27;20479;-75
2022/03/02 01:11:54;;;;;;;8.23;6.50;;;;;;;-143.84;91.57;45203.31;5135360;27;20497;-74
2022/03/02 01:14:22;;;;;;;10.27;7.60;;;;;;;-143.84;91.65;45188.06;5135534;27;20442;-75
2022/03/02 01:16:49;;;;;;;7.80;6.90;;;;;;;-143.84;91.42;45237.59;5134329;27;20434;-75
2022/03/02 01:19:16;;;;;;;8.03;5.90;;;;;;;-143.84;91.52;45188.06;5135660;27;20450;-74
2022/03/02 01:21:43;;;;;;;8.63;7.03;;;;;;;-143.84;91.72;45201.41;5136089;27;20434;-75
2022/03/02 01:24:11;;;;;;;7.70;7.00;;;;;;;-143.84;91.80;45195.69;5136138;27;20418;-74
2022/03/02 01:26:39;;;;;;;9.30;7.30;;;;;;;-143.84;92.10;45184.25;5135270;27;20470;-75
2022/03/02 01:29:06;;;;;;;7.53;6.77;;;;;;;-143.84;92.07;45199.50;5135326;27;20443;-74
2022/03/02 01:31:34;;;;;;;7.17;6.47;;;;;;;-143.84;92.30;45188.06;5135593;27;20488;-75
2022/03/02 01:34:01;;;;;;;8.10;6.97;;;;;;;-143.84;92.06;45216.63;5135815;27;20426;-74
2022/03/02 01:36:28;;;;;;;8.03;6.87;;;;;;;-143.84;91.95;45188.06;5135374;27;20522;-74
2022/03/02 01:38:55;;;;;;;8.77;6.87;;;;;;;-143.84;92.34;45195.69;5134993;27;20434;-75
2022/03/02 01:41:24;;;;;;;9.37;6.70;;;;;;;-143.84;91.75;45186.16;5135247;27;20487;-74
2022/03/02 01:43:55;;;;;;;7.87;7.07;;;;;;;-143.84;91.82;45197.59;5134696;27;20431;-75
2022/03/02 01:46:23;;;;;;;8.20;6.20;;;;;;;-143.84;91.60;45218.53;5134709;27;20422;-75
2022/03/02 01:48:50;;;;;;;7.67;5.87;;;;;;;-143.84;91.90;45197.59;5135231;27;20787;-74
2022/03/02 01:51:18;;;;;;;8.23;6.57;;;;;;;-143.84;92.23;45247.09;5134858;27;20992;-74
2022/03/02 01:53:46;;;;;;;7.47;6.07;;;;;;;-143.84;91.87;45231.88;5134700;27;20487;-74
2022/03/02 01:56:13;;;;;;;9.73;6.53;;;;;;;-143.84;91.56;45203.31;5135025;27;20468;-74
2022/03/02 01:58:40;;;;;;;8.07;6.87;;;;;;;-143.84;91.61;45189.97;5133875;27;20430;-74
2022/03/02 02:01:09;;;;;;;9.43;7.17;;;;;;;-143.84;91.90;45199.50;5133883;27;20431;-74
2022/03/02 02:03:36;;;;;;;9.87;7.80;;;;;;;-143.84;92.07;45195.69;5132922;27;20442;-75
2022/03/02 02:06:04;;;;;;;8.50;6.53;;;;;;;-143.84;92.11;45220.44;5134188;27;20446;-75
2022/03/02 02:08:32;;;;;;;5.63;5.20;;;;;;;-143.84;91.92;45195.69;5133779;27;20903;-75
2022/03/02 02:11:01;;;;;;;6.87;5.90;;;;;;;-143.84;91.48;45189.97;5134645;27;20943;-75
2022/03/02 02:13:30;;;;;;;7.10;6.40;;;;;;;-143.84;91.76;45216.63;5134866;27;20442;-74
2022/03/02 02:15:57;;;;;;;8.30;6.30;;;;;;;-143.84;92.01;45216.63;5134646;27;20501;-75
2022/03/02 02:18:26;;;;;;;6.97;6.30;;;;;;;-143.84;92.17;45212.84;5134533;27;20510;-75
2022/03/02 02:20:55;;;;;;;8.03;6.30;;;;;;;-143.84;91.90;45174.75;5134658;27;21032;-75
2022/03/02 02:23:22;;;;;;;8.50;5.90;;;;;;;-143.84;91.49;45209.03;5134646;27;20470;-74
2022/03/02 02:25:49;;;;;;;6.37;5.40;;;;;;;-143.84;91.30;45209.03;5134615;27;21340;-74
2022/03/02 02:28:25;;;;;;;5.93;5.33;;;;;;;-143.84;91.35;45224.25;5134593;27;20538;-74
2022/03/02 02:30:55;;;;;;;7.77;6.97;;;;;;;-143.84;91.27;45237.59;5133773;27;21004;-74
2022/03/02 02:33:22;;;;;;;6.90;6.13;;;;;;;-143.84;91.23;45197.59;5133274;27;20441;-75
2022/03/02 02:35:49;;;;;;;6.67;6.07;;;;;;;-143.84;91.27;45195.69;5134553;27;20825;-75
2022/03/02 02:38:20;;;;;;;6.37;5.47;;;;;;;-143.84;91.22;45228.06;5134893;27;20984;-74
2022/03/02 02:40:47;;;;;;;6.60;5.90;;;;;;;-143.84;91.26;45205.22;5134331;27;20442;-74
2022/03/02 02:43:17;;;;;;;5.47;5.00;;;;;;;-143.84;91.14;45203.31;5134441;27;20429;-74
2022/03/02 02:45:44;;;;;;;7.23;6.33;;;;;;;-143.84;90.83;45205.22;5134413;27;20426;-75
2022/03/02 02:48:11;;;;;;;5.57;4.97;;;;;;;-143.84;91.00;45193.78;5134008;27;20506;-74
2022/03/02 02:50:39;;;;;;;4.87;4.37;;;;;;;-143.84;91.39;45195.69;5132688;27;20434;-74
2022/03/02 02:53:09;;;;;;;6.20;4.90;;;;;;;-143.84;91.29;45199.50;5133697;27;20848;-74
2022/03/02 02:55:39;;;;;;;5.33;4.70;;;;;;;-143.84;91.60;45220.44;5133359;27;20487;-75
2022/03/02 02:58:07;;;;;;;5.53;5.03;;;;;;;-143.84;91.08;45174.75;5132865;27;20514;-75
2022/03/02 03:00:36;;;;;;;6.83;5.40;;;;;;;-143.84;91.22;45203.31;5133356;27;20446;-74
2022/03/02 03:03:05;;;;;;;5.60;5.03;;;;;;;-143.84;90.99;45212.84;5133863;27;20430;-74
2022/03/02 03:05:34;;;;;;;5.60;4.90;;;;;;;-143.84;91.06;45209.03;5133804;27;20438;-75
2022/03/02 03:08:02;;;;;;;7.87;5.43;;;;;;;-143.84;91.23;45210.94;5132984;27;20465;-75
2022/03/02 03:10:30;;;;;;;6.23;5.03;;;;;;;-143.84;91.21;45186.16;5133594;27;20812;-75
2022/03/02 03:12:58;;;;;;;5.03;4.63;;;;;;;-143.84;91.46;45226.16;5133770;27;20517;-75
2022/03/02 03:15:26;;;;;;;5.87;5.30;;;;;;;-143.84;91.55;45186.16;5133504;27;20534;-75
2022/03/02 03:17:54;;;;;;;5.90;5.40;;;;;;;-143.84;91.64;45214.72;5133735;27;20506;-75
2022/03/02 03:20:24;;;;;;;4.40;4.00;;;;;;;-143.84;91.29;45193.78;5133493;27;20450;-74
2022/03/02 03:22:54;;;;;;;7.80;5.90;;;;;;;-143.84;91.58;45174.75;5133931;27;20430;-74
2022/03/02 03:25:23;;;;;;;5.50;5.00;;;;;;;-143.84;91.50;45195.69;5132958;27;20434;-75
2022/03/02 03:27:51;;;;;;;6.17;4.70;;;;;;;-143.84;91.98;45205.22;5133312;27;20550;-74
2022/03/02 03:30:22;;;;;;;5.63;4.90;;;;;;;-143.84;92.07;45191.88;5133771;27;20439;-74
2022/03/02 03:32:50;;;;;;;5.07;4.23;;;;;;;-143.84;91.91;45224.25;5133426;27;20984;-75
2022/03/02 03:35:19;;;;;;;5.73;4.90;;;;;;;-143.84;91.60;45214.72;5133341;27;20428;-75
2022/03/02 03:37:46;;;;;;;4.50;4.13;;;;;;;-143.84;91.60;45214.72;5133323;27;20487;-75
2022/03/02 03:40:15;;;;;;;5.90;4.67;;;;;;;-143.84;91.81;45189.97;5132910;27;20462;-75
2022/03/02 03:42:43;;;;;;;5.87;5.07;;;;;;;-143.84;91.82;45195.69;5133117;27;20483;-75
2022/03/02 03:45:11;;;;;;;5.30;4.80;;;;;;;-143.84;91.84;45197.59;5133452;27;20430;-74
2022/03/02 03:47:40;;;;;;;4.30;3.97;;;;;;;-143.84;91.73;45197.59;5130430;27;20476;-75
2022/03/02 03:50:08;;;;;;;4.53;4.13;;;;;;;-143.84;91.92;45199.50;5132841;27;20454;-75
2022/03/02 03:52:35;;;;;;;5.40;4.90;;;;;;;-143.84;92.12;45214.72;5133039;27;20438;-75
2022/03/02 03:55:05;;;;;;;4.13;3.83;;;;;;;-143.84;92.16;45214.72;5133020;27;20433;-75
2022/03/02 03:57:32;;;;;;;4.93;4.53;;;;;;;-143.84;92.29;45228.06;5132623;27;20426;-74
2022/03/02 03:59:59;;;;;;;4.73;4.33;;;;;;;-143.84;92.03;45207.13;5132875;27;20972;-75
2022/03/02 04:02:26;;;;;;;5.37;4.87;;;;;;;-143.84;92.00;45209.03;5132955;27;20491;-75
2022/03/02 04:04:55;;;;;;;5.17;4.77;;;;;;;-143.84;92.09;45201.41;5133012;27;20482;-74
2022/03/02 04:07:22;;;;;;;4.90;4.40;;;;;;;-143.84;92.36;45184.25;5132974;28;20543;-74
2022/03/02 04:09:49;;;;;;;6.03;4.60;;;;;;;-143.84;92.34;45191.88;5132763;28;20449;-75
2022/03/02 04:12:17;;;;;;;5.33;4.83;;;;;;;-143.84;92.53;45197.59;5133237;28;20920;-75
2022/03/02 04:14:45;;;;;;;5.30;4.80;;;;;;;-143.84;92.37;45224.25;5132285;28;20540;-75
2022/03/02 04:17:12;;;;;;;5.30;4.80;;;;;;;-143.84;92.39;45205.22;5133127;28;20442;-74
2022/03/02 04:19:40;;;;;;;5.93;5.20;;;;;;;-143.84;92.09;45193.78;5132717;28;20803;-74
2022/03/02 04:22:09;;;;;;;5.23;4.73;;;;;;;-143.84;91.85;45172.84;5114777;28;20437;-74
2022/03/02 04:24:37;;;;;;;5.83;5.30;;;;;;;-143.84;92.14;45214.72;5133128;28;20434;-74
2022/03/02 04:27:05;;;;;;;5.00;4.37;;;;;;;-143.84;92.03;45186.16;5132322;28;20947;-75
2022/03/02 04:29:32;;;;;;;5.43;4.30;;;;;;;-143.84;92.44;45207.13;5131975;28;20442;-74
2022/03/02 04:32:00;;;;;;;4.40;4.10;;;;;;;-143.84;92.65;45195.69;5117527;28;20458;-74
2022/03/02 04:34:28;;;;;;;5.33;4.83;;;;;;;-143.84;92.78;45184.25;5111507;28;20824;-74
2022/03/02 04:36:55;;;;;;;5.17;4.67;;;;;;;-143.84;92.63;45186.16;5111466;28;20822;-74
2022/03/02 04:39:24;;;;;;;4.77;4.37;;;;;;;-143.84;92.62;45180.47;5127898;28;20445;-75
2022/03/02 04:41:51;;;;;;;5.87;5.10;;;;;;;-143.84;92.38;45165.22;5126740;28;20843;-74
2022/03/02 04:44:18;;;;;;;5.00;4.60;;;;;;;-143.84;92.38;45209.03;5130520;28;20859;-76
2022/03/02 04:46:50;;;;;;;6.17;5.27;;;;;;;-143.84;92.49;45188.06;5131937;28;20434;-74
2022/03/02 04:49:19;;;;;;;5.30;4.90;;;;;;;-143.84;92.31;45165.22;5129074;28;20482;-75
2022/03/02 04:51:46;;;;;;;4.43;4.00;;;;;;;-143.84;92.40;45216.63;5130734;28;20438;-75
2022/03/02 04:55:05;;;;;;;4.90;4.30;;;;;;;-143.84;92.17;45203.31;5131441;28;20444;-75
2022/03/02 04:57:04;;;;;;;4.60;4.10;;;;;;;-143.84;92.14;45191.88;5129972;28;20446;-74
2022/03/02 04:59:32;;;;;;;4.10;3.80;;;;;;;-143.84;91.71;45188.06;5130773;28;20454;-72
2022/03/02 05:01:59;;;;;;;4.80;4.30;;;;;;;-143.84;92.20;45188.06;5130603;28;20908;-72
2022/03/02 05:04:27;;;;;;;6.10;5.50;;;;;;;-143.84;92.06;45176.66;5128452;27;20454;-75
2022/03/02 05:06:54;;;;;;;4.37;4.07;;;;;;;-143.84;91.85;45180.47;5111584;28;21233;-75
2022/03/02 05:09:21;;;;;;;3.80;3.50;;;;;;;-143.84;91.81;45193.78;5130505;28;20477;-75
2022/03/02 05:11:48;;;;;;;3.83;3.63;;;;;;;-143.84;91.60;45201.41;5132312;28;20465;-74
2022/03/02 05:14:17;;;;;;;4.33;3.93;;;;;;;-143.84;91.36;45199.50;5133764;27;20770;-74
2022/03/02 05:16:44;;;;;;;8.97;7.27;;;;;;;-143.84;91.09;45239.50;5115662;28;20487;-75
2022/03/02 05:19:11;;;;;;;6.87;6.03;;;;;;;-143.84;91.27;45186.16;5115585;28;20453;-75
2022/03/02 05:21:39;;;;;;;10.83;5.67;;;;;;;-143.84;91.03;45216.63;5114600;28;20438;-75
2022/03/02 05:24:07;;;;;;;6.60;4.60;;;;;;;-143.84;90.93;45176.66;5114772;28;20434;-75
2022/03/02 05:26:34;;;;;;;15.67;11.23;;;;;;;-143.84;91.29;45191.88;5114930;28;20423;-74
2022/03/02 05:29:02;;;;;;;9.23;5.60;;;;;;;-143.84;90.98;45195.69;5115007;28;20558;-74
2022/03/02 05:31:30;;;;;;;6.70;5.73;;;;;;;-143.84;90.68;45207.13;5113768;28;20443;-76
2022/03/02 05:33:57;;;;;;;5.67;5.17;;;;;;;-143.84;89.96;45203.31;5112642;28;20443;-78
2022/03/02 05:36:25;;;;;;;4.33;3.93;;;;;;;-143.84;89.90;45226.16;5113801;28;20507;-78
2022/03/02 05:38:53;;;;;;;5.20;4.70;;;;;;;-143.84;89.66;45189.97;5113472;28;20463;-78
2022/03/02 05:41:20;;;;;;;11.30;8.17;;;;;;;-143.84;89.04;45186.16;5113075;28;20442;-75
2022/03/02 05:43:47;;;;;;;5.30;4.80;;;;;;;-143.84;88.86;45224.25;5112272;28;20442;-75
2022/03/02 05:46:15;;;;;;;4.90;4.60;;;;;;;-143.84;88.90;45195.69;5112197;28;20450;-75
2022/03/02 05:48:43;;;;;;;3.73;3.53;;;;;;;-143.84;88.98;45151.91;5112068;28;20474;-75
2022/03/02 05:51:11;;;;;;;4.33;4.03;;;;;;;-143.84;89.07;45191.88;5112621;28;20505;-74
2022/03/02 05:53:38;;;;;;;3.97;3.57;;;;;;;-143.84;88.62;45216.63;5112394;28;20500;-74
2022/03/02 05:56:06;;;;;;;4.30;4.00;;;;;;;-143.84;89.06;45231.88;5112294;28;20439;-75
2022/03/02 05:58:33;;;;;;;3.80;3.50;;;;;;;-143.84;88.69;45205.22;5112095;28;20829;-74
2022/03/02 06:01:00;;;;;;;11.23;5.63;;;;;;;-143.84;88.80;45220.44;5112101;28;20465;-74
2022/03/02 06:03:28;;;;;;;4.50;4.20;;;;;;;-143.84;88.20;45228.06;5112121;28;20439;-74
2022/03/02 06:05:57;;;;;;;4.37;4.00;;;;;;;-143.84;88.22;45201.41;5112049;28;20474;-75
2022/03/02 06:08:24;;;;;;;4.30;4.00;;;;;;;-143.84;87.48;45218.53;5111688;28;20987;-74
2022/03/02 06:10:52;;;;;;;4.10;3.80;;;;;;;-143.84;87.56;45212.84;5111784;28;20497;-75
2022/03/02 06:13:20;;;;;;;4.17;3.83;;;;;;;-143.84;86.20;45207.13;5111756;28;20504;-75
2022/03/02 06:15:47;;;;;;;4.50;4.10;;;;;;;-143.84;86.31;45203.31;5111588;28;20478;-75
2022/03/02 06:18:15;;;;;;;5.30;4.90;;;;;;;-143.84;85.71;45195.69;5111216;28;20509;-75
2022/03/02 06:20:42;;;;;;;5.13;4.10;;;;;;;-143.84;84.95;45201.41;5111176;28;20455;-74
2022/03/02 06:23:12;;;;;;;4.97;4.47;;;;;;;-143.84;84.81;45205.22;5111644;28;20502;-74
2022/03/02 06:25:39;;;;;;;5.57;4.20;;;;;;;-143.84;84.03;45180.47;5111071;28;20790;-73
2022/03/02 06:28:06;;;;;;;4.93;4.23;;;;;;;-143.84;82.96;45216.63;5110915;28;20478;-73
2022/03/02 06:30:34;;;;;;;5.53;4.20;;;;;;;-143.84;82.58;45214.72;5111143;28;20443;-73
2022/03/02 06:33:01;;;;;;;4.30;4.00;;;;;;;-143.84;82.76;45195.69;5110635;28;20458;-73
2022/03/02 06:35:28;;;;;;;6.37;5.50;;;;;;;-143.84;82.16;45207.13;5110681;28;20451;-73
2022/03/02 06:37:56;;;;;;;5.03;4.13;;;;;;;-143.84;81.90;45235.69;5110586;28;21010;-73
2022/03/02 06:40:25;;;;;;;4.97;4.53;;;;;;;-143.84;80.67;45210.94;5110997;28;20453;-73
2022/03/02 06:43:01;;;;;;;5.30;4.87;;;;;;;-143.84;79.31;45212.84;5109782;28;20515;-73
2022/03/02 06:45:36;;;;;;;9.37;6.10;;;;;;;-143.84;79.99;45207.13;5108587;28;20435;-73
2022/03/02 06:48:12;;;;;;;12.00;7.60;;;;;;;-143.84;79.21;45214.72;5108952;28;20482;-73
2022/03/02 06:50:42;;;;;;;6.07;5.57;;;;;;;-143.84;79.08;45210.94;5108962;28;20431;-73
2022/03/02 06:53:13;;;;;;;5.20;4.80;;;;;;;-143.84;78.96;45212.84;5109123;28;20439;-73
2022/03/02 06:55:44;;;;;;;9.13;5.87;;;;;;;-143.84;78.88;45218.53;5108782;28;20559;-73
2022/03/02 06:58:14;;;;;;;6.60;5.30;;;;;;;-143.84;78.67;45199.50;5108996;28;20964;-73
2022/03/02 07:00:48;;;;;;;6.40;5.60;;;;;;;-143.84;78.54;45245.19;5110598;28;21008;-72
2022/03/02 07:03:19;;;;;;;7.60;6.83;;;;;;;-143.84;79.39;45205.22;5110221;28;20447;-73
2022/03/02 07:05:47;;;;;;;6.50;5.90;;;;;;;-143.84;79.95;45193.78;5110291;28;21016;-72
2022/03/02 07:08:17;;;;;;;6.00;5.50;;;;;;;-143.84;79.56;45186.16;5110076;28;20575;-72
2022/03/02 07:10:45;;;;;;;5.97;5.47;;;;;;;-143.84;79.24;45197.59;5110049;28;20502;-72
2022/03/02 07:13:12;;;;;;;6.40;5.80;;;;;;;-143.84;79.38;45220.44;5109843;28;20458;-72
2022/03/02 07:15:40;;;;;;;6.40;5.83;;;;;;;-143.84;80.17;45191.88;5097131;28;21069;-73
2022/03/02 07:18:07;;;;;;;6.40;5.73;;;;;;;-143.84;80.45;45224.25;5089387;28;20445;-72
2022/03/02 07:20:40;;;;;;;7.20;6.60;;;;;;;-143.84;80.54;45203.31;5088769;28;20560;-73
2022/03/02 07:23:13;;;;;;;7.20;6.50;;;;;;;-143.84;80.64;45224.25;5089034;28;20507;-72
2022/03/02 07:25:44;;;;;;;6.43;5.90;;;;;;;-143.84;79.87;45191.88;5088827;28;20525;-72
2022/03/02 07:28:14;;;;;;;5.97;5.47;;;;;;;-143.84;80.23;45169.03;5088810;28;20532;-72
2022/03/02 07:30:45;;;;;;;6.30;5.70;;;;;;;-143.84;79.99;45233.78;5089326;28;20946;-72
2022/03/02 07:33:15;;;;;;;8.13;6.10;;;;;;;-143.84;79.93;45188.06;5089251;28;20439;-72
2022/03/02 07:35:49;;;;;;;5.60;5.10;;;;;;;-143.84;79.25;45209.03;5088595;28;21095;-72
2022/03/02 07:38:17;;;;;;;6.30;5.80;;;;;;;-143.84;79.67;45189.97;5089261;28;20530;-72
2022/03/02 07:40:45;;;;;;;5.13;4.83;;;;;;;-143.84;79.02;45205.22;5089126;28;20444;-72
2022/03/02 07:43:14;;;;;;;6.77;6.10;;;;;;;-143.84;79.03;45178.56;5089517;28;20463;-72
2022/03/02 07:45:41;;;;;;;5.37;4.87;;;;;;;-143.84;78.42;45197.59;5088910;28;20452;-72
2022/03/02 07:48:10;;;;;;;5.20;4.80;;;;;;;-143.84;78.18;45193.78;5088830;28;20866;-72
2022/03/02 07:50:38;;;;;;;5.40;4.90;;;;;;;-143.84;78.25;45210.94;5089155;28;20451;-72
2022/03/02 07:53:07;;;;;;;4.57;4.27;;;;;;;-143.84;77.77;45210.94;5088902;28;20443;-72
2022/03/02 07:55:37;;;;;;;4.23;3.93;;;;;;;-143.84;77.91;45216.63;5089125;28;21073;-72
2022/03/02 07:58:05;;;;;;;4.87;4.47;;;;;;;-143.84;78.06;45174.75;5080744;28;21170;-72
2022/03/02 08:00:34;;;;;;;5.70;5.20;;;;;;;-143.84;77.71;45212.84;5088807;28;20444;-72
2022/03/02 08:03:02;;;;;;;6.00;5.23;;;;;;;-143.84;77.70;45189.97;5088858;28;20852;-72
2022/03/02 08:05:31;;;;;;;5.60;5.10;;;;;;;-143.84;77.14;45176.66;5088991;28;20448;-72
2022/03/02 08:07:59;;;;;;;5.60;5.10;;;;;;;-143.84;76.57;45193.78;5088964;28;20456;-72
2022/03/02 08:10:26;;;;;;;5.90;5.30;;;;;;;-143.84;76.67;45178.56;5088494;28;20482;-73
2022/03/02 08:12:54;;;;;;;8.40;6.50;;;;;;;-143.84;76.43;45197.59;5088676;28;20444;-73
2022/03/02 08:15:22;;;;;;;6.30;5.20;;;;;;;-143.84;76.35;45222.34;5098416;28;20889;-73
2022/03/02 08:17:51;;;;;;;6.30;5.70;;;;;;;-143.84;77.29;45201.41;5109130;28;20439;-73
2022/03/02 08:20:18;;;;;;;8.07;6.80;;;;;;;-143.84;77.36;45199.50;5109151;28;20520;-72
2022/03/02 08:22:50;;;;;;;6.00;5.30;;;;;;;-143.84;77.81;45209.03;5109392;28;20442;-73
2022/03/02 08:25:22;;;;;;;5.07;4.57;;;;;;;-143.84;77.80;45188.06;5108764;28;20445;-72
2022/03/02 08:27:52;;;;;;;6.40;5.43;;;;;;;-143.84;78.17;45193.78;5109033;28;20446;-72
2022/03/02 08:30:19;;;;;;;6.43;5.83;;;;;;;-143.84;78.97;45222.34;5109004;28;20476;-73
2022/03/02 08:32:48;;;;;;;8.30;5.43;;;;;;;-143.84;78.94;45209.03;5108925;28;20484;-72
2022/03/02 08:35:17;;;;;;;9.03;5.30;;;;;;;-143.84;79.25;45197.59;5108401;28;20435;-72
2022/03/02 08:37:44;;;;;;;5.10;4.70;;;;;;;-143.84;79.28;45170.94;5108076;28;20472;-73
2022/03/02 08:40:13;;;;;;;5.90;5.40;;;;;;;-143.84;79.68;45193.78;5109095;28;20496;-72
2022/03/02 08:42:41;;;;;;;6.27;5.57;;;;;;;-143.84;80.27;45178.56;5108902;28;20446;-72
2022/03/02 08:45:10;;;;;;;5.63;5.13;;;;;;;-143.84;80.73;45247.09;5109059;28;20445;-73
2022/03/02 08:47:37;;;;;;;7.50;5.83;;;;;;;-143.84;81.41;45195.69;5108744;28;20503;-73
2022/03/02 08:50:05;;;;;;;6.30;5.70;;;;;;;-143.84;81.66;45197.59;5107527;28;20489;-73
2022/03/02 08:52:35;;;;;;;6.20;5.60;;;;;;;-143.84;81.59;45220.44;5112416;28;20946;-73
2022/03/02 08:55:05;;;;;;;8.57;7.20;;;;;;;-143.84;82.32;45207.13;5112655;28;20443;-72
2022/03/02 08:57:34;;;;;;;6.87;6.17;;;;;;;-143.84;82.06;45199.50;5112969;28;20871;-73
2022/03/02 09:00:06;;;;;;;7.50;6.80;;;;;;;-143.84;82.06;45167.13;5112724;28;20461;-73
2022/03/02 09:02:36;;;;;;;7.83;6.50;;;;;;;-143.84;82.65;45216.63;5112674;28;20966;-72
2022/03/02 09:05:06;;;;;;;5.90;5.40;;;;;;;-143.84;82.13;45222.34;5112897;28;20869;-73
2022/03/02 09:07:36;;;;;;;6.87;5.90;;;;;;;-143.84;82.29;45189.97;5112572;28;20451;-73
2022/03/02 09:10:05;;;;;;;7.30;6.50;;;;;;;-143.84;82.63;45203.31;5112598;28;20986;-73
2022/03/02 09:12:32;;;;;;;6.03;5.63;;;;;;;-143.84;82.47;45199.50;5112231;28;20439;-73
2022/03/02 09:15:00;;;;;;;6.30;5.70;;;;;;;-143.84;82.47;45210.94;5119360;27;20508;-73
2022/03/02 09:17:28;;;;;;;5.80;5.30;;;;;;;-143.84;81.45;45195.69;5133094;27;21006;-73
2022/03/02 09:19:56;;;;;;;7.43;6.70;;;;;;;-143.84;81.93;45172.84;5132840;27;20511;-73
2022/03/02 09:22:25;;;;;;;5.30;4.90;;;;;;;-143.84;82.10;45151.91;5132890;27;20437;-73
2022/03/02 09:24:54;;;;;;;5.77;5.23;;;;;;;-143.84;80.71;45201.41;5132684;27;20434;-73
2022/03/02 09:27:27;;;;;;;7.80;6.97;;;;;;;-143.84;80.28;45203.31;5132781;27;20503;-73
2022/03/02 09:29:57;;;;;;;6.60;6.07;;;;;;;-143.84;79.75;45207.13;5132903;27;20997;-73
2022/03/02 09:32:26;;;;;;;6.80;6.13;;;;;;;-143.84;78.42;45163.31;5132833;27;20449;-73
2022/03/02 09:34:57;;;;;;;9.63;7.30;;;;;;;-143.84;77.97;45205.22;5132579;27;20852;-73
2022/03/02 09:37:27;;;;;;;6.17;5.57;;;;;;;-143.84;76.68;45178.56;5132414;27;20438;-73
2022/03/02 09:39:56;;;;;;;6.23;5.73;;;;;;;-143.84;76.38;45203.31;5132394;27;20481;-73
2022/03/02 09:42:27;;;;;;;6.07;5.47;;;;;;;-143.84;75.04;45159.50;5132361;27;20498;-73
2022/03/02 09:45:01;;;;;;;5.23;4.73;;;;;;;-143.84;74.10;45203.31;5132489;27;20456;-73
2022/03/02 09:47:42;;;;;;;6.47;5.80;;;;;;;-143.84;74.68;45178.56;5132398;27;20445;-73
2022/03/02 09:50:12;;;;;;;5.50;5.00;;;;;;;-143.84;74.71;45178.56;5132399;27;20816;-74
2022/03/02 09:52:41;;;;;;;5.53;5.07;;;;;;;-143.84;74.92;45191.88;5132047;27;20503;-73
2022/03/02 09:55:13;;;;;;;5.53;5.13;;;;;;;-143.84;75.18;45180.47;5132618;27;20435;-73
2022/03/02 09:57:44;;;;;;;5.10;4.60;;;;;;;-143.84;75.27;45191.88;5132118;27;20442;-74
2022/03/02 10:00:13;;;;;;;5.53;5.13;;;;;;;-143.84;75.63;45178.56;5132522;27;20450;-77
2022/03/02 10:02:42;;;;;;;5.50;5.00;;;;;;;-143.84;75.44;45195.69;5132852;27;20450;-77
2022/03/02 10:05:12;;;;;;;11.10;6.83;;;;;;;-143.84;76.40;45199.50;5132361;27;20437;-76
2022/03/02 10:07:45;;;;;;;5.93;5.43;;;;;;;-143.84;76.46;45170.94;5130970;27;20503;-77
2022/03/02 10:10:18;;;;;;;5.43;5.03;;;;;;;-143.84;76.61;45191.88;5132688;27;21437;-77
2022/03/02 10:12:45;;;;;;;7.63;5.87;;;;;;;-143.84;77.02;45195.69;5133118;27;20467;-77
2022/03/02 10:15:14;;;;;;;6.20;5.70;;;;;;;-143.84;76.99;45189.97;5132807;27;20485;-77
2022/03/02 10:17:43;;;;;;;6.50;5.80;;;;;;;-143.84;77.36;45216.63;5132830;27;20475;-77
2022/03/02 10:20:14;;;;;;;7.30;5.57;;;;;;;-143.84;77.65;45161.41;5132706;27;21032;-77
2022/03/02 10:23:09;;;;;;;5.60;5.10;;;;;;;-143.84;77.51;45170.94;5132359;27;20973;-76
2022/03/02 10:25:52;;;;;;;4.20;3.80;;;;;;;-143.84;76.94;45193.78;5132615;27;20442;-77
2022/03/02 10:28:26;;;;;;;4.70;4.30;;;;;;;-143.84;76.97;45184.25;5132332;27;20490;-77
2022/03/02 10:31:10;;;;;;;4.30;3.93;;;;;;;-143.84;76.88;45184.25;5131372;27;20518;-77
2022/03/02 10:33:39;;;;;;;5.00;4.50;;;;;;;-143.84;77.37;45203.31;5131998;27;20434;-77
2022/03/02 10:36:09;;;;;;;8.10;6.20;;;;;;;-143.84;78.15;45203.31;5132606;27;20837;-77
2022/03/02 10:38:49;;;;;;;8.20;6.57;;;;;;;-143.84;77.98;45163.31;5132239;27;20442;-77
2022/03/02 10:41:21;;;;;;;6.20;4.90;;;;;;;-143.84;76.16;45184.25;5132692;27;20488;-77
2022/03/02 10:43:58;;;;;;;4.43;4.13;;;;;;;-143.84;76.32;45191.88;5132685;27;20422;-77
2022/03/02 10:46:27;;;;;;;7.40;6.20;;;;;;;-143.84;77.54;45180.47;5131788;27;20880;-77
2022/03/02 10:49:05;;;;;;;8.47;6.93;;;;;;;-143.84;77.56;45205.22;5131769;27;20438;-77
2022/03/02 10:51:34;;;;;;;5.63;4.93;;;;;;;-143.84;77.93;45193.78;5131815;27;20490;-76
2022/03/02 10:54:04;;;;;;;5.60;4.23;;;;;;;-143.84;77.75;45191.88;5131785;27;20450;-76
2022/03/02 10:56:38;;;;;;;4.37;4.07;;;;;;;-143.84;77.85;45222.34;5131700;27;20499;-76
2022/03/02 10:59:08;;;;;;;4.63;4.23;;;;;;;-143.84;78.63;45189.97;5132053;27;20963;-76
2022/03/02 11:01:36;;;;;;;5.03;4.50;;;;;;;-143.84;78.23;45191.88;5131849;27;20870;-76
2022/03/02 11:04:06;;;;;;;5.50;4.70;;;;;;;-143.84;78.37;45191.88;5131927;27;20438;-77
2022/03/02 11:06:35;;;;;;;5.37;4.10;;;;;;;-143.84;78.76;45205.22;5131882;27;20499;-76
2022/03/02 11:09:04;;;;;;;5.00;4.50;;;;;;;-143.84;77.81;45186.16;5131606;27;20498;-76
2022/03/02 11:11:35;;;;;;;4.57;4.13;;;;;;;-143.84;78.65;45189.97;5130963;27;20546;-77
2022/03/02 11:14:04;;;;;;;4.63;4.27;;;;;;;-143.84;79.15;45174.75;5131660;27;20463;-76
2022/03/02 11:16:31;;;;;;;4.63;4.23;;;;;;;-143.84;79.29;45197.59;5131166;27;20860;-77
2022/03/02 11:19:10;;;;;;;7.20;6.00;;;;;;;-143.84;79.00;45216.63;5131351;27;20453;-77
2022/03/02 11:21:42;;;;;;;6.20;5.60;;;;;;;-143.84;78.69;45231.88;5130999;27;20941;-77
2022/03/02 11:24:10;;;;;;;5.13;4.70;;;;;;;-143.84;78.92;45210.94;5130890;27;20428;-77